createdAt,value
2018-07-25T00:01:52.745Z,23.63
2018-07-25T00:04:21.352Z,23.62
2018-07-25T00:06:49.662Z,23.63
2018-07-25T00:09:17.995Z,23.58
2018-07-25T00:11:46.366Z,23.57
2018-07-25T00:14:14.744Z,23.54
2018-07-25T00:16:43.060Z,23.54
2018-07-25T00:19:11.695Z,23.56
2018-07-25T00:21:40.024Z,23.52
2018-07-25T00:24:08.390Z,23.51
2018-07-25T00:26:36.703Z,23.44
2018-07-25T00:29:05.011Z,23.43
2018-07-25T00:31:33.408Z,23.46
2018-07-25T00:34:01.835Z,23.42
2018-07-25T00:36:30.185Z,23.42
2018-07-25T00:38:58.551Z,23.42
2018-07-25T00:41:26.980Z,23.37
2018-07-25T00:43:55.346Z,23.35
2018-07-25T00:46:23.668Z,23.34
2018-07-25T00:48:52.032Z,23.30
2018-07-25T00:51:20.384Z,23.26
2018-07-25T00:53:48.725Z,23.21
2018-07-25T00:56:17.058Z,23.15
2018-07-25T00:58:48.365Z,23.10
2018-07-25T01:01:16.744Z,23.04
2018-07-25T01:03:45.129Z,23.00
2018-07-25T01:06:13.446Z,22.94
2018-07-25T01:08:41.806Z,22.90
2018-07-25T01:11:10.120Z,22.92
2018-07-25T01:13:38.461Z,22.88
2018-07-25T01:16:07.223Z,22.90
2018-07-25T01:18:35.575Z,22.81
2018-07-25T01:21:04.001Z,22.82
2018-07-25T01:23:32.561Z,22.80
2018-07-25T01:26:00.955Z,22.74
2018-07-25T01:28:29.314Z,22.67
2018-07-25T01:30:57.707Z,22.66
2018-07-25T01:33:26.071Z,22.61
2018-07-25T01:35:54.428Z,22.63
2018-07-25T01:38:22.812Z,22.61
2018-07-25T01:40:51.165Z,22.54
2018-07-25T01:43:19.522Z,22.53
2018-07-25T01:45:47.975Z,22.48
2018-07-25T01:48:16.306Z,22.49
2018-07-25T01:50:44.654Z,22.44
2018-07-25T01:53:13.006Z,22.45
2018-07-25T01:55:41.390Z,22.42
2018-07-25T01:58:09.699Z,22.41
2018-07-25T02:00:38.360Z,22.35
2018-07-25T02:03:07.320Z,22.30
2018-07-25T02:05:35.637Z,22.27
2018-07-25T02:08:04.057Z,22.23
2018-07-25T02:10:36.562Z,22.21
2018-07-25T02:13:04.880Z,22.21
2018-07-25T02:15:33.730Z,22.21
2018-07-25T02:18:02.121Z,22.20
2018-07-25T02:20:31.525Z,22.16
2018-07-25T02:23:00.326Z,22.12
2018-07-25T02:25:29.063Z,22.09
2018-07-25T02:27:57.397Z,22.05
2018-07-25T02:30:25.927Z,22.02
2018-07-25T02:32:54.226Z,21.97
2018-07-25T02:35:22.527Z,21.95
2018-07-25T02:37:50.833Z,21.90
2018-07-25T02:40:19.663Z,21.86
2018-07-25T02:42:48.258Z,21.84
2018-07-25T02:45:16.811Z,21.79
2018-07-25T02:47:45.385Z,21.77
2018-07-25T02:50:13.989Z,21.73
2018-07-25T02:52:42.348Z,21.75
2018-07-25T02:55:11.219Z,21.75
2018-07-25T02:57:39.584Z,21.63
2018-07-25T03:00:08.120Z,21.69
2018-07-25T03:02:36.449Z,21.70
2018-07-25T03:05:05.312Z,21.65
2018-07-25T03:07:34.600Z,21.58
2018-07-25T03:10:03.869Z,21.51
2018-07-25T03:12:32.235Z,21.39
2018-07-25T03:15:00.534Z,21.34
2018-07-25T03:17:28.859Z,21.32
2018-07-25T03:19:57.176Z,21.38
2018-07-25T03:22:25.919Z,21.28
2018-07-25T03:24:54.255Z,21.31
2018-07-25T03:27:22.615Z,21.26
2018-07-25T03:29:51.549Z,21.20
2018-07-25T03:32:20.903Z,21.14
2018-07-25T03:34:49.312Z,21.04
2018-07-25T03:37:18.015Z,20.96
2018-07-25T03:39:46.346Z,20.94
2018-07-25T03:42:14.689Z,20.89
2018-07-25T03:44:42.991Z,20.85
2018-07-25T03:47:11.535Z,20.77
2018-07-25T03:49:39.959Z,20.86
2018-07-25T03:52:08.264Z,20.86
2018-07-25T03:54:36.584Z,20.87
2018-07-25T03:57:05.114Z,20.79
2018-07-25T03:59:33.453Z,20.70
2018-07-25T04:02:01.857Z,20.66
2018-07-25T04:04:31.155Z,20.71
2018-07-25T04:06:59.460Z,20.76
2018-07-25T04:09:29.097Z,20.81
2018-07-25T04:11:57.445Z,20.83
2018-07-25T04:14:26.043Z,20.79
2018-07-25T04:16:54.457Z,20.91
2018-07-25T04:19:22.788Z,20.93
2018-07-25T04:21:51.143Z,20.98
2018-07-25T04:24:19.432Z,21.04
2018-07-25T04:26:48.009Z,21.11
2018-07-25T04:29:16.343Z,21.16
2018-07-25T04:31:46.726Z,21.22
2018-07-25T04:34:15.231Z,21.30
2018-07-25T04:36:43.890Z,21.29
2018-07-25T04:39:15.616Z,21.31
2018-07-25T04:41:44.104Z,21.32
2018-07-25T04:44:12.433Z,21.34
2018-07-25T04:46:40.806Z,21.43
2018-07-25T04:49:09.138Z,21.48
2018-07-25T04:51:37.492Z,21.50
2018-07-25T04:54:05.854Z,21.55
2018-07-25T04:56:34.450Z,21.58
2018-07-25T04:59:03.122Z,21.63
2018-07-25T05:01:31.799Z,21.68
2018-07-25T05:04:00.153Z,21.80
2018-07-25T05:06:28.575Z,21.89
2018-07-25T05:08:56.896Z,21.97
2018-07-25T05:11:25.296Z,22.06
2018-07-25T05:13:53.609Z,22.14
2018-07-25T05:16:21.972Z,22.19
2018-07-25T05:18:50.378Z,22.28
2018-07-25T05:21:18.701Z,22.32
2018-07-25T05:23:47.024Z,22.39
2018-07-25T05:26:15.377Z,22.46
2018-07-25T05:28:43.696Z,22.54
2018-07-25T05:31:12.044Z,22.55
2018-07-25T05:33:40.608Z,22.63
2018-07-25T05:38:36.399Z,22.80
2018-07-25T05:41:05.085Z,22.86
2018-07-25T05:43:33.501Z,23.00
2018-07-25T05:46:01.852Z,23.10
2018-07-25T05:48:30.308Z,23.15
2018-07-25T05:50:58.869Z,23.27
2018-07-25T05:53:27.167Z,23.39
2018-07-25T05:55:55.499Z,23.50
2018-07-25T05:58:23.811Z,23.71
2018-07-25T06:00:52.191Z,24.17
2018-07-25T06:03:20.543Z,24.98
2018-07-25T06:05:48.935Z,25.61
2018-07-25T06:08:17.213Z,26.10
2018-07-25T06:10:45.597Z,26.30
2018-07-25T06:13:14.040Z,26.66
2018-07-25T06:15:43.437Z,27.01
2018-07-25T06:18:15.493Z,27.26
2018-07-25T06:20:43.948Z,27.45
2018-07-25T06:23:13.153Z,27.63
2018-07-25T06:25:42.624Z,28.02
2018-07-25T06:28:11.087Z,28.34
2018-07-25T06:30:39.562Z,28.54
2018-07-25T06:33:08.024Z,28.45
2018-07-25T06:35:36.361Z,28.72
2018-07-25T06:38:04.755Z,28.75
2018-07-25T06:40:33.318Z,28.67
2018-07-25T06:43:01.744Z,28.64
2018-07-25T06:45:30.200Z,28.74
2018-07-25T06:47:58.566Z,28.70
2018-07-25T06:50:27.420Z,28.81
2018-07-25T06:52:56.043Z,28.70
2018-07-25T06:55:24.497Z,29.13
2018-07-25T06:57:53.100Z,29.58
2018-07-25T07:00:21.667Z,29.65
2018-07-25T07:02:50.068Z,29.74
2018-07-25T07:05:18.376Z,29.78
2018-07-25T07:07:46.726Z,29.21
2018-07-25T07:10:15.077Z,29.55
2018-07-25T07:12:43.403Z,29.66
2018-07-25T07:15:13.012Z,29.56
2018-07-25T07:17:42.068Z,29.68
2018-07-25T07:20:10.548Z,30.02
2018-07-25T07:22:38.908Z,30.74
2018-07-25T07:25:09.740Z,31.35
2018-07-25T07:27:43.343Z,32.11
2018-07-25T07:30:11.671Z,32.84
2018-07-25T07:32:40.003Z,33.07
2018-07-25T07:35:08.365Z,32.97
2018-07-25T07:37:37.751Z,32.94
2018-07-25T07:40:06.077Z,33.00
2018-07-25T07:42:34.458Z,33.07
2018-07-25T07:45:02.837Z,33.20
2018-07-25T07:47:31.248Z,33.15
2018-07-25T07:49:59.530Z,33.23
2018-07-25T07:52:27.855Z,33.40
2018-07-25T07:54:56.178Z,32.62
2018-07-25T07:57:24.537Z,32.52
2018-07-25T07:59:52.963Z,32.29
2018-07-25T08:02:21.385Z,32.60
2018-07-25T08:04:49.724Z,32.64
2018-07-25T08:07:18.001Z,32.40
2018-07-25T08:09:46.341Z,32.96
2018-07-25T08:12:15.196Z,33.16
2018-07-25T08:14:43.489Z,33.22
2018-07-25T08:17:11.843Z,33.26
2018-07-25T08:19:40.243Z,32.95
2018-07-25T08:22:08.847Z,33.11
2018-07-25T08:24:37.182Z,32.99
2018-07-25T08:27:05.555Z,32.91
2018-07-25T08:29:33.891Z,32.70
2018-07-25T08:32:02.271Z,32.81
2018-07-25T08:34:30.624Z,32.67
2018-07-25T08:36:58.969Z,32.33
2018-07-25T08:39:27.293Z,32.35
2018-07-25T08:41:55.578Z,32.17
2018-07-25T08:44:23.914Z,32.18
2018-07-25T08:46:52.302Z,32.10
2018-07-25T08:49:20.585Z,32.17
2018-07-25T08:51:48.883Z,32.11
2018-07-25T08:54:17.200Z,32.15
2018-07-25T08:56:45.546Z,32.10
2018-07-25T08:59:13.954Z,32.10
2018-07-25T09:01:42.340Z,32.36
2018-07-25T09:04:10.816Z,32.29
2018-07-25T09:06:39.532Z,32.39
2018-07-25T09:09:10.313Z,32.29
2018-07-25T09:11:38.763Z,32.25
2018-07-25T09:14:07.187Z,32.13
2018-07-25T09:16:35.610Z,32.03
2018-07-25T09:19:04.354Z,31.86
2018-07-25T09:21:33.153Z,32.16
2018-07-25T09:24:01.627Z,32.24
2018-07-25T09:26:30.253Z,32.19
2018-07-25T09:28:58.747Z,32.60
2018-07-25T09:31:27.324Z,32.74
2018-07-25T09:33:55.929Z,32.79
2018-07-25T09:36:24.581Z,32.83
2018-07-25T09:38:53.151Z,32.95
2018-07-25T09:41:21.851Z,32.93
2018-07-25T09:43:50.433Z,33.09
2018-07-25T09:46:19.058Z,32.94
2018-07-25T09:48:47.515Z,33.14
2018-07-25T09:51:16.012Z,33.20
2018-07-25T09:53:44.490Z,32.64
2018-07-25T09:56:13.167Z,32.37
2018-07-25T09:58:42.552Z,32.08
2018-07-25T10:01:11.131Z,32.15
2018-07-25T10:03:39.688Z,32.12
2018-07-25T10:06:08.247Z,32.32
2018-07-25T10:08:36.718Z,32.49
2018-07-25T10:11:05.463Z,32.74
2018-07-25T10:13:34.103Z,32.91
2018-07-25T10:16:02.781Z,32.74
2018-07-25T10:18:31.305Z,32.75
2018-07-25T10:20:59.907Z,32.83
2018-07-25T10:23:28.535Z,33.09
2018-07-25T10:25:57.869Z,33.17
2018-07-25T10:28:26.581Z,33.15
2018-07-25T10:30:55.198Z,33.33
2018-07-25T10:33:23.735Z,33.24
2018-07-25T10:35:52.502Z,32.75
2018-07-25T10:38:21.203Z,32.62
2018-07-25T10:40:49.879Z,32.95
2018-07-25T10:43:18.386Z,32.87
2018-07-25T10:45:47.937Z,32.86
2018-07-25T10:48:16.394Z,32.85
2018-07-25T10:50:45.039Z,32.88
2018-07-25T10:53:13.599Z,32.75
2018-07-25T10:55:42.117Z,32.62
2018-07-25T10:58:10.667Z,32.20
2018-07-25T11:00:39.150Z,32.28
2018-07-25T11:03:07.856Z,32.70
2018-07-25T11:05:36.354Z,32.89
2018-07-25T11:08:04.927Z,32.83
2018-07-25T11:10:33.508Z,32.92
2018-07-25T11:13:02.073Z,32.94
2018-07-25T11:15:30.751Z,32.90
2018-07-25T11:17:59.495Z,33.06
2018-07-25T11:20:28.075Z,32.89
2018-07-25T11:22:56.604Z,33.03
2018-07-25T11:25:25.125Z,33.06
2018-07-25T11:27:53.700Z,33.08
2018-07-25T11:30:22.219Z,33.16
2018-07-25T11:32:50.806Z,32.86
2018-07-25T11:35:19.431Z,33.18
2018-07-25T11:37:47.925Z,33.29
2018-07-25T11:40:16.502Z,33.18
2018-07-25T11:42:45.023Z,33.27
2018-07-25T11:45:13.477Z,32.97
2018-07-25T11:47:41.848Z,33.24
2018-07-25T11:50:10.708Z,33.43
2018-07-25T11:52:39.733Z,33.18
2018-07-25T11:55:08.206Z,33.41
2018-07-25T11:57:36.687Z,33.30
2018-07-25T12:00:05.374Z,33.50
2018-07-25T12:02:33.902Z,33.46
2018-07-25T12:05:02.922Z,33.69
2018-07-25T12:07:31.403Z,33.25
2018-07-25T12:09:59.973Z,33.03
2018-07-25T12:12:28.498Z,33.05
2018-07-25T12:14:57.434Z,33.12
2018-07-25T12:17:25.953Z,33.28
2018-07-25T12:19:54.551Z,33.30
2018-07-25T12:22:23.153Z,33.16
2018-07-25T12:24:51.634Z,33.37
2018-07-25T12:27:20.107Z,33.27
2018-07-25T12:29:48.763Z,33.37
2018-07-25T12:32:18.040Z,33.46
2018-07-25T12:34:46.731Z,33.41
2018-07-25T12:37:15.844Z,33.35
2018-07-25T12:39:44.321Z,33.41
2018-07-25T12:42:12.770Z,33.55
2018-07-25T12:44:42.427Z,33.29
2018-07-25T12:47:11.011Z,33.16
2018-07-25T12:49:39.788Z,33.15
2018-07-25T12:52:08.766Z,32.93
2018-07-25T12:54:37.378Z,33.02
2018-07-25T12:57:05.950Z,33.07
2018-07-25T12:59:34.622Z,33.26
2018-07-25T13:02:03.237Z,33.32
2018-07-25T13:04:31.749Z,33.33
2018-07-25T13:07:00.119Z,33.56
2018-07-25T13:09:28.524Z,33.49
2018-07-25T13:11:56.927Z,33.30
2018-07-25T13:14:25.738Z,33.15
2018-07-25T13:16:54.449Z,33.17
2018-07-25T13:19:23.018Z,33.18
2018-07-25T13:21:51.520Z,33.23
2018-07-25T13:24:20.043Z,33.14
2018-07-25T13:26:48.851Z,33.12
2018-07-25T13:29:17.240Z,33.19
2018-07-25T13:31:45.714Z,33.21
2018-07-25T13:34:14.186Z,33.43
2018-07-25T13:36:42.798Z,33.63
2018-07-25T13:39:11.167Z,33.60
2018-07-25T13:41:39.704Z,33.66
2018-07-25T13:44:08.423Z,33.71
2018-07-25T13:46:36.898Z,33.71
2018-07-25T13:49:05.477Z,33.38
2018-07-25T13:51:34.889Z,33.49
2018-07-25T13:54:04.110Z,33.38
2018-07-25T13:56:32.618Z,33.30
2018-07-25T13:59:01.006Z,33.25
2018-07-25T14:01:29.480Z,33.26
2018-07-25T14:03:57.963Z,33.31
2018-07-25T14:06:27.886Z,33.46
2018-07-25T14:08:56.355Z,33.65
2018-07-25T14:11:24.996Z,33.71
2018-07-25T14:13:54.685Z,33.69
2018-07-25T14:16:23.121Z,33.71
2018-07-25T14:18:51.667Z,33.62
2018-07-25T14:21:21.536Z,33.55
2018-07-25T14:23:50.045Z,33.56
2018-07-25T14:26:18.340Z,33.56
2018-07-25T14:28:47.078Z,33.76
2018-07-25T14:31:15.467Z,33.94
2018-07-25T14:33:43.926Z,33.95
2018-07-25T14:36:12.462Z,33.92
2018-07-25T14:38:40.791Z,33.94
2018-07-25T14:41:09.286Z,33.73
2018-07-25T14:43:37.884Z,33.45
2018-07-25T14:46:07.126Z,33.48
2018-07-25T14:48:35.780Z,33.50
2018-07-25T14:51:04.263Z,33.38
2018-07-25T14:53:33.466Z,33.42
2018-07-25T14:56:05.559Z,33.30
2018-07-25T14:58:35.854Z,33.34
2018-07-25T15:01:05.106Z,33.27
2018-07-25T15:03:33.528Z,33.33
2018-07-25T15:06:02.307Z,33.44
2018-07-25T15:08:31.057Z,33.40
2018-07-25T15:10:59.551Z,33.31
2018-07-25T15:13:28.455Z,33.17
2018-07-25T15:15:57.275Z,33.06
2018-07-25T15:18:27.352Z,33.03
2018-07-25T15:20:56.733Z,32.97
2018-07-25T15:23:36.449Z,32.95
2018-07-25T15:26:06.334Z,32.96
2018-07-25T15:28:36.735Z,33.03
2018-07-25T15:31:05.765Z,33.13
2018-07-25T15:33:35.484Z,33.19
2018-07-25T15:36:04.054Z,33.21
2018-07-25T15:38:35.054Z,33.18
2018-07-25T15:41:05.519Z,33.10
2018-07-25T15:43:34.412Z,33.07
2018-07-25T15:46:03.472Z,33.12
2018-07-25T15:48:31.867Z,33.15
2018-07-25T15:51:01.756Z,33.10
2018-07-25T15:53:30.250Z,33.09
2018-07-25T15:55:59.038Z,33.03
2018-07-25T15:58:27.417Z,33.19
2018-07-25T16:00:57.591Z,33.31
2018-07-25T16:03:29.437Z,33.20
2018-07-25T16:05:58.746Z,33.06
2018-07-25T16:08:28.400Z,32.93
2018-07-25T16:10:58.266Z,32.93
2018-07-25T16:13:27.319Z,32.74
2018-07-25T16:15:57.866Z,32.88
2018-07-25T16:18:32.507Z,32.95
2018-07-25T16:21:04.919Z,33.01
2018-07-25T16:23:35.211Z,33.05
2018-07-25T16:26:06.544Z,32.90
2018-07-25T16:28:35.293Z,33.10
2018-07-25T16:31:04.755Z,32.91
2018-07-25T16:33:34.727Z,33.04
2018-07-25T16:36:03.293Z,33.11
2018-07-25T16:38:32.774Z,33.13
2018-07-25T16:41:03.017Z,33.15
2018-07-25T16:43:32.973Z,33.10
2018-07-25T16:46:04.785Z,33.10
2018-07-25T16:48:37.249Z,33.18
2018-07-25T16:51:07.527Z,33.16
2018-07-25T16:53:38.541Z,33.06
2018-07-25T16:56:07.726Z,33.06
2018-07-25T16:58:37.677Z,32.76
2018-07-25T17:01:06.889Z,32.93
2018-07-25T17:03:35.928Z,33.11
2018-07-25T17:06:04.960Z,32.96
2018-07-25T17:08:33.412Z,32.97
2018-07-25T17:11:02.262Z,33.05
2018-07-25T17:13:31.664Z,33.04
2018-07-25T17:16:00.849Z,32.94
2018-07-25T17:18:29.838Z,32.99
2018-07-25T17:20:58.563Z,32.99
2018-07-25T17:23:27.452Z,32.98
2018-07-25T17:25:57.257Z,32.88
2018-07-25T17:28:25.851Z,32.80
2018-07-25T17:30:54.926Z,32.73
2018-07-25T17:33:24.078Z,32.67
2018-07-25T17:35:52.966Z,32.62
2018-07-25T17:38:22.050Z,32.55
2018-07-25T17:40:50.974Z,32.53
2018-07-25T17:43:19.976Z,32.47
2018-07-25T17:45:50.265Z,32.42
2018-07-25T17:48:18.932Z,32.35
2018-07-25T17:50:48.085Z,32.29
2018-07-25T17:53:16.662Z,32.25
2018-07-25T17:55:45.389Z,32.23
2018-07-25T17:58:14.666Z,32.15
2018-07-25T18:00:43.241Z,32.14
2018-07-25T18:03:12.449Z,32.08
2018-07-25T18:05:41.429Z,32.03
2018-07-25T18:08:10.139Z,31.99
2018-07-25T18:10:39.065Z,31.95
2018-07-25T18:14:16.951Z,31.92
2018-07-25T18:16:46.155Z,31.86
2018-07-25T18:19:16.023Z,31.79
2018-07-25T18:21:44.627Z,31.73
2018-07-25T18:24:13.715Z,31.66
2018-07-25T18:26:42.298Z,31.64
2018-07-25T18:29:11.181Z,31.53
2018-07-25T18:31:40.259Z,31.48
2018-07-25T18:34:09.150Z,31.43
2018-07-25T18:36:37.855Z,31.35
2018-07-25T18:39:09.551Z,31.30
2018-07-25T18:41:38.598Z,31.19
2018-07-25T18:44:07.374Z,31.13
2018-07-25T18:46:36.086Z,31.04
2018-07-25T18:49:04.645Z,30.95
2018-07-25T18:51:33.360Z,30.93
2018-07-25T18:54:02.035Z,30.84
2018-07-25T18:56:31.024Z,30.76
2018-07-25T18:58:59.740Z,30.72
2018-07-25T19:01:28.426Z,30.64
2018-07-25T19:03:56.835Z,30.57
2018-07-25T19:06:25.393Z,30.53
2018-07-25T19:08:54.021Z,30.45
2018-07-25T19:11:22.872Z,30.39
2018-07-25T19:13:56.524Z,30.33
2018-07-25T19:16:25.044Z,30.27
2018-07-25T19:18:53.523Z,30.20
2018-07-25T19:21:23.290Z,30.14
2018-07-25T19:23:52.393Z,30.05
2018-07-25T19:26:21.112Z,30.02
2018-07-25T19:28:49.651Z,29.97
2018-07-25T19:31:18.648Z,29.80
2018-07-25T19:33:47.506Z,29.79
2018-07-25T19:36:16.660Z,29.74
2018-07-25T19:38:45.518Z,29.66
2018-07-25T19:41:14.972Z,29.56
2018-07-25T19:43:43.840Z,29.53
2018-07-25T19:46:12.703Z,29.36
2018-07-25T19:48:41.347Z,29.29
2018-07-25T19:51:10.288Z,29.22
2018-07-25T19:53:39.105Z,29.13
2018-07-25T19:56:07.765Z,29.07
2018-07-25T19:58:36.275Z,29.02
2018-07-25T20:01:04.899Z,28.94
2018-07-25T20:03:33.439Z,28.82
2018-07-25T20:06:02.943Z,28.84
2018-07-25T20:08:31.562Z,28.75
2018-07-25T20:11:00.066Z,28.51
2018-07-25T20:13:31.230Z,28.30
2018-07-25T20:16:00.923Z,28.20
2018-07-25T20:18:30.463Z,28.13
2018-07-25T20:20:59.459Z,28.18
2018-07-25T20:23:28.576Z,28.16
2018-07-25T20:25:56.937Z,28.19
2018-07-25T20:28:25.551Z,28.24
2018-07-25T20:30:54.226Z,28.26
2018-07-25T20:33:22.696Z,28.23
2018-07-25T20:35:51.144Z,28.28
2018-07-25T20:38:19.597Z,28.24
2018-07-25T20:40:48.194Z,28.26
2018-07-25T20:43:16.603Z,28.25
2018-07-25T20:45:45.282Z,28.22
2018-07-25T20:48:13.742Z,28.19
2018-07-25T20:50:42.113Z,28.22
2018-07-25T20:53:10.669Z,28.20
2018-07-25T20:55:39.166Z,28.19
2018-07-25T20:58:07.758Z,28.12
2018-07-25T21:00:36.768Z,28.05
2018-07-25T21:03:06.814Z,28.01
2018-07-25T21:05:35.536Z,27.94
2018-07-25T21:08:04.003Z,27.92
2018-07-25T21:10:34.177Z,27.84
2018-07-25T21:13:04.673Z,27.76
2018-07-25T21:15:34.321Z,27.68
2018-07-25T21:18:03.090Z,27.61
2018-07-25T21:20:31.406Z,27.53
2018-07-25T21:22:59.754Z,27.43
2018-07-25T21:25:30.067Z,27.37
2018-07-25T21:27:58.726Z,27.40
2018-07-25T21:30:27.354Z,27.29
2018-07-25T21:32:58.503Z,27.25
2018-07-25T21:35:26.803Z,27.10
2018-07-25T21:37:57.782Z,27.11
2018-07-25T21:40:26.162Z,27.06
2018-07-25T21:42:54.808Z,27.04
2018-07-25T21:45:23.162Z,27.08
2018-07-25T21:47:53.843Z,27.04
2018-07-25T21:50:22.830Z,26.95
2018-07-25T21:52:51.830Z,26.88
2018-07-25T21:55:20.430Z,26.81
2018-07-25T21:57:49.039Z,26.74
2018-07-25T22:00:17.830Z,26.66
2018-07-25T22:02:47.008Z,26.64
2018-07-25T22:05:15.606Z,26.58
2018-07-25T22:07:45.306Z,26.54
2018-07-25T22:10:13.699Z,26.57
2018-07-25T22:12:42.414Z,26.53
2018-07-25T22:15:12.086Z,26.48
2018-07-25T22:17:40.452Z,26.39
2018-07-25T22:20:11.696Z,26.38
2018-07-25T22:22:40.865Z,26.33
2018-07-25T22:25:09.918Z,26.25
2018-07-25T22:27:40.829Z,26.22
2018-07-25T22:30:09.365Z,26.20
2018-07-25T22:32:37.783Z,26.17
2018-07-25T22:35:07.173Z,26.10
2018-07-25T22:37:36.725Z,26.02
2018-07-25T22:40:05.389Z,25.95
2018-07-25T22:42:34.403Z,25.89
2018-07-25T22:45:03.271Z,25.84
2018-07-25T22:47:31.631Z,25.77
2018-07-25T22:50:00.242Z,25.71
2018-07-25T22:52:29.245Z,25.65
2018-07-25T22:54:58.256Z,25.55
2018-07-25T22:57:27.110Z,25.48
2018-07-25T22:59:56.230Z,25.45
2018-07-25T23:02:24.583Z,25.42
2018-07-25T23:04:53.446Z,25.32
2018-07-25T23:07:22.231Z,25.28
2018-07-25T23:09:50.752Z,25.23
2018-07-25T23:12:19.738Z,25.20
2018-07-25T23:14:48.567Z,25.20
2018-07-25T23:17:16.936Z,25.19
2018-07-25T23:19:46.355Z,25.17
2018-07-25T23:22:15.138Z,25.15
2018-07-25T23:24:44.828Z,25.13
2018-07-25T23:27:13.466Z,25.16
2018-07-25T23:29:41.883Z,25.15
2018-07-25T23:32:14.726Z,25.16
2018-07-25T23:34:43.837Z,25.14
2018-07-25T23:37:12.278Z,25.15
2018-07-25T23:39:40.576Z,25.17
2018-07-25T23:42:08.890Z,25.16
2018-07-25T23:44:37.277Z,25.15
2018-07-25T23:47:05.636Z,25.16
2018-07-25T23:49:33.976Z,25.13
2018-07-25T23:52:02.348Z,25.12
2018-07-25T23:54:30.657Z,25.12
2018-07-25T23:56:59.049Z,25.11
2018-07-25T23:59:27.398Z,25.11
